Time;durP1;ratioP1;P1;durP2;ratioP2;P2;SDS_P1;SDS_P2;PMS_P1;PMS_P2;Temp;Humidity;BMP_temperature;BMP_pressure;BME280_temperature;BME280_humidity;BME280_pressure;Samples;Min_cycle;Max_cycle;Signal;HPM_P1;HPM_P2
2021/12/05 00:18:30;;;;;;;1.80;1.70;;;16.50;49.90;;;;;;5166321;27;46824;-20
2021/12/05 00:23:46;;;;;;;1.80;1.70;;;16.40;49.80;;;;;;5166462;27;46835;-16
2021/12/05 00:26:17;;;;;;;1.73;1.60;;;16.40;49.80;;;;;;5168913;27;47075;-16
2021/12/05 00:29:10;;;;;;;1.90;1.77;;;16.40;49.80;;;;;;5169055;27;46851;-20
2021/12/05 00:31:58;;;;;;;1.60;1.50;;;16.40;49.80;;;;;;5168477;27;46815;-19
2021/12/05 00:34:42;;;;;;;1.70;1.60;;;16.40;49.80;;;;;;5169428;27;46899;-16
2021/12/05 00:48:39;;;;;;;2.08;1.60;;;16.30;49.80;;;;;;5165915;27;47729;-20
2021/12/05 01:11:00;;;;;;;2.50;1.30;;;16.20;49.80;;;;;;5121978;27;46829;-19
2021/12/05 01:13:34;;;;;;;1.75;1.40;;;16.20;49.90;;;;;;5123359;27;46915;-19
2021/12/05 01:16:02;;;;;;;1.83;1.33;;;16.20;50.00;;;;;;5122814;27;49166;-19
2021/12/05 01:18:29;;;;;;;2.08;1.42;;;16.20;50.00;;;;;;5122895;27;46853;-18
2021/12/05 01:21:00;;;;;;;1.40;1.30;;;16.10;49.90;;;;;;5122872;27;47021;-19
2021/12/05 01:23:34;;;;;;;1.33;1.25;;;16.10;49.90;;;;;;5123439;27;47030;-16
2021/12/05 01:26:04;;;;;;;1.45;1.35;;;16.10;49.90;;;;;;5123033;27;48106;-16
2021/12/05 01:28:46;;;;;;;1.48;1.38;;;16.10;49.90;;;;;;5122814;27;46875;-19
2021/12/05 01:31:18;;;;;;;1.55;1.23;;;16.10;50.00;;;;;;5122950;27;46935;-19
2021/12/05 01:33:54;;;;;;;1.77;1.38;;;16.10;49.90;;;;;;5123241;27;46943;-19
2021/12/05 01:36:29;;;;;;;1.52;1.40;;;16.00;49.80;;;;;;5122705;27;48237;-19
2021/12/05 01:39:10;;;;;;;1.50;1.40;;;16.00;49.90;;;;;;5122817;27;46846;-19
2021/12/05 01:44:48;;;;;;;1.75;1.23;;;16.00;49.90;;;;;;5086885;27;47192;-19
2021/12/05 01:53:13;;;;;;;1.13;1.13;;;16.00;49.80;;;;;;5121990;27;47045;-15
2021/12/05 01:58:51;;;;;;;1.40;1.30;;;15.90;49.80;;;;;;5119781;27;46811;-16
2021/12/05 02:01:40;;;;;;;2.17;1.40;;;15.90;49.70;;;;;;5122383;27;47006;-16
2021/12/05 02:09:51;;;;;;;2.60;1.20;;;15.90;49.70;;;;;;5105607;27;46752;-18
2021/12/05 02:15:06;;;;;;;1.27;1.17;;;15.90;49.80;;;;;;5108604;27;46970;-19
2021/12/05 02:34:47;;;;;;;1.08;1.00;;;15.80;49.70;;;;;;5102306;27;46877;-19
2021/12/05 02:37:48;;;;;;;1.10;1.02;;;15.80;49.70;;;;;;5108353;27;46954;-19
2021/12/05 02:40:27;;;;;;;1.20;1.10;;;15.80;49.70;;;;;;5107855;27;47225;-16
2021/12/05 02:43:02;;;;;;;0.98;0.90;;;15.80;49.60;;;;;;5107773;27;49052;-16
2021/12/05 02:45:29;;;;;;;1.33;0.90;;;15.80;49.60;;;;;;5107837;27;46925;-15
2021/12/05 02:47:56;;;;;;;1.20;1.10;;;15.70;49.50;;;;;;5107904;27;46835;-16
2021/12/05 02:50:25;;;;;;;1.08;1.00;;;15.70;49.50;;;;;;5107729;27;46849;-15
2021/12/05 02:52:58;;;;;;;2.00;1.20;;;15.70;49.50;;;;;;5107964;27;47908;-16
2021/12/05 02:55:31;;;;;;;1.23;1.00;;;15.70;49.50;;;;;;5107176;27;47124;-15
2021/12/05 02:58:01;;;;;;;0.75;0.75;;;15.70;49.50;;;;;;5107921;27;46808;-16
2021/12/05 03:00:35;;;;;;;1.02;0.77;;;15.70;49.60;;;;;;5107678;27;46936;-16
2021/12/05 03:03:02;;;;;;;1.02;1.00;;;15.70;49.60;;;;;;5107487;27;46879;-15
2021/12/05 03:05:29;;;;;;;1.58;0.90;;;15.70;49.60;;;;;;5107600;27;47238;-16
2021/12/05 03:08:01;;;;;;;1.85;1.10;;;15.70;49.60;;;;;;5107509;27;46765;-20
2021/12/05 03:10:28;;;;;;;1.00;0.80;;;15.70;49.60;;;;;;5107880;27;46920;-15
2021/12/05 03:12:55;;;;;;;0.90;0.80;;;15.60;49.60;;;;;;5107535;27;47924;-17
2021/12/05 03:15:21;;;;;;;0.90;0.90;;;15.60;49.60;;;;;;5107344;27;46842;-16
2021/12/05 03:17:48;;;;;;;0.98;0.77;;;15.60;49.60;;;;;;5107412;27;47020;-17
2021/12/05 03:20:15;;;;;;;1.60;1.00;;;15.60;49.60;;;;;;5106566;27;47061;-19
2021/12/05 03:22:42;;;;;;;0.90;0.90;;;15.60;49.60;;;;;;5107374;27;46902;-17
2021/12/05 03:25:11;;;;;;;1.05;0.80;;;15.60;49.50;;;;;;5107200;27;46931;-16
2021/12/05 03:27:39;;;;;;;1.05;0.90;;;15.60;49.50;;;;;;5107460;27;46773;-16
2021/12/05 03:30:07;;;;;;;1.10;1.00;;;15.60;49.50;;;;;;5107393;27;46932;-15
2021/12/05 03:32:33;;;;;;;1.25;0.70;;;15.60;49.50;;;;;;5107268;27;47852;-16
2021/12/05 03:35:00;;;;;;;1.20;1.00;;;15.60;49.50;;;;;;5107086;27;46903;-16
2021/12/05 03:37:27;;;;;;;0.75;0.75;;;15.60;49.50;;;;;;5107271;27;46983;-19
2021/12/05 03:39:53;;;;;;;0.95;0.82;;;15.60;49.60;;;;;;5107086;27;46884;-19
2021/12/05 03:42:21;;;;;;;1.00;0.85;;;15.60;49.60;;;;;;5107064;27;49118;-19
2021/12/05 03:44:48;;;;;;;1.42;0.88;;;15.60;49.60;;;;;;5106764;27;46830;-19
2021/12/05 03:47:15;;;;;;;1.15;0.80;;;15.50;49.50;;;;;;5107310;27;46779;-19
2021/12/05 03:49:41;;;;;;;0.65;0.65;;;15.50;49.50;;;;;;5107125;27;46887;-19
2021/12/05 03:52:09;;;;;;;0.70;0.70;;;15.50;49.50;;;;;;5106836;27;47943;-20
2021/12/05 03:54:36;;;;;;;2.15;0.80;;;15.50;49.60;;;;;;5106455;27;46884;-19
2021/12/05 03:57:03;;;;;;;0.82;0.82;;;15.50;49.60;;;;;;5106921;27;46855;-20
2021/12/05 03:59:31;;;;;;;1.30;0.73;;;15.50;49.60;;;;;;5106841;27;46541;-19
2021/12/05 04:01:59;;;;;;;0.93;0.90;;;15.50;49.60;;;;;;5106760;27;46900;-19
2021/12/05 04:04:26;;;;;;;1.00;1.00;;;15.50;49.60;;;;;;5106747;27;46928;-16
2021/12/05 04:06:52;;;;;;;1.02;0.88;;;15.50;49.50;;;;;;5106635;27;46821;-16
2021/12/05 04:09:19;;;;;;;0.77;0.77;;;15.50;49.50;;;;;;5106995;27;47011;-17
2021/12/05 04:11:49;;;;;;;0.80;0.80;;;15.50;49.50;;;;;;5106288;27;49039;-15
2021/12/05 04:14:17;;;;;;;1.67;0.70;;;15.50;49.50;;;;;;5106679;27;46926;-19
2021/12/05 04:16:45;;;;;;;1.02;0.90;;;15.50;49.60;;;;;;5106399;27;46819;-19
2021/12/05 04:19:12;;;;;;;1.83;0.90;;;15.50;49.60;;;;;;5106513;27;46907;-16
2021/12/05 04:21:39;;;;;;;0.98;0.90;;;15.50;49.50;;;;;;5106261;27;47842;-19
2021/12/05 04:24:07;;;;;;;1.58;0.90;;;15.40;49.50;;;;;;5106246;27;46900;-19
2021/12/05 04:26:34;;;;;;;1.92;0.95;;;15.40;49.60;;;;;;5106347;27;46940;-19
2021/12/05 04:29:01;;;;;;;2.38;0.90;;;15.50;49.60;;;;;;5106607;27;47276;-20
2021/12/05 04:31:27;;;;;;;1.02;0.77;;;15.40;49.60;;;;;;5105827;27;49325;-16
2021/12/05 04:33:55;;;;;;;0.75;0.70;;;15.40;49.60;;;;;;5106171;27;47189;-16
2021/12/05 04:36:22;;;;;;;0.73;0.73;;;15.40;49.60;;;;;;5106138;27;46845;-15
2021/12/05 04:38:49;;;;;;;0.68;0.60;;;15.40;49.60;;;;;;5106493;27;47208;-20
2021/12/05 04:41:16;;;;;;;1.88;1.17;;;15.40;49.60;;;;;;5106244;27;48908;-19
2021/12/05 04:43:43;;;;;;;0.73;0.73;;;15.40;49.60;;;;;;5105978;27;46811;-16
2021/12/05 04:46:11;;;;;;;0.70;0.70;;;15.30;49.60;;;;;;5106077;27;47050;-16
2021/12/05 04:48:38;;;;;;;0.60;0.60;;;15.30;49.60;;;;;;5106328;27;47122;-16
2021/12/05 04:51:08;;;;;;;1.45;0.70;;;15.30;49.60;;;;;;5105921;27;48187;-19
2021/12/05 04:53:34;;;;;;;0.80;0.80;;;15.30;49.50;;;;;;5105758;27;46825;-16
2021/12/05 04:56:01;;;;;;;0.60;0.60;;;15.30;49.50;;;;;;5105621;27;46980;-16
2021/12/05 04:58:28;;;;;;;1.17;0.70;;;15.30;49.50;;;;;;5106551;27;47061;-16
2021/12/05 05:00:57;;;;;;;0.73;0.73;;;15.30;49.50;;;;;;5105388;27;48090;-16
2021/12/05 05:03:23;;;;;;;1.00;0.90;;;15.30;49.60;;;;;;5105661;27;46776;-17
2021/12/05 05:05:54;;;;;;;1.25;0.73;;;15.30;49.50;;;;;;5105795;27;46955;-15
2021/12/05 05:08:22;;;;;;;0.70;0.70;;;15.30;49.50;;;;;;5106307;27;47002;-18
2021/12/05 05:10:49;;;;;;;0.70;0.65;;;15.20;49.50;;;;;;5105340;27;49111;-20
2021/12/05 05:13:16;;;;;;;0.70;0.68;;;15.30;49.60;;;;;;5105976;27;46850;-19
2021/12/05 05:15:42;;;;;;;0.70;0.70;;;15.20;49.50;;;;;;5105722;27;46882;-18
2021/12/05 05:18:11;;;;;;;0.73;0.60;;;15.20;49.50;;;;;;5106027;27;47027;-20
2021/12/05 05:20:48;;;;;;;0.65;0.60;;;15.20;49.50;;;;;;5105311;27;48145;-19
2021/12/05 05:23:41;;;;;;;1.38;0.70;;;15.20;49.50;;;;;;5106173;27;46924;-19
2021/12/05 05:50:55;;;;;;;0.65;0.60;;;15.10;49.60;;;;;;5103043;27;47647;-16
2021/12/05 05:53:22;;;;;;;1.17;0.70;;;15.10;49.50;;;;;;5108829;27;46923;-17
2021/12/05 05:55:49;;;;;;;0.60;0.57;;;15.10;49.60;;;;;;5108064;27;47406;-15
2021/12/05 05:58:20;;;;;;;0.68;0.68;;;15.10;49.60;;;;;;5108594;27;47052;-19
2021/12/05 06:00:57;;;;;;;0.63;0.50;;;15.10;49.60;;;;;;5108862;27;47162;-19
2021/12/05 06:03:24;;;;;;;0.50;0.50;;;15.10;49.60;;;;;;5108599;27;48232;-16
2021/12/05 06:05:52;;;;;;;0.68;0.68;;;15.10;49.50;;;;;;5108424;27;46821;-17
2021/12/05 06:08:20;;;;;;;0.60;0.60;;;15.10;49.50;;;;;;5108658;27;46831;-16
2021/12/05 06:10:47;;;;;;;0.75;0.57;;;15.10;49.50;;;;;;5108753;27;47281;-16
2021/12/05 06:13:15;;;;;;;1.17;0.80;;;15.10;49.50;;;;;;5108318;27;48365;-19
2021/12/05 06:15:43;;;;;;;0.68;0.57;;;15.10;49.50;;;;;;5108402;27;47000;-16
2021/12/05 06:18:10;;;;;;;0.68;0.68;;;15.10;49.40;;;;;;5108579;27;46782;-16
2021/12/05 06:20:37;;;;;;;0.77;0.57;;;15.10;49.40;;;;;;5108466;27;47267;-16
2021/12/05 06:23:03;;;;;;;0.88;0.60;;;15.10;49.40;;;;;;5108435;27;48735;-19
2021/12/05 06:25:33;;;;;;;0.75;0.60;;;15.10;49.50;;;;;;5107913;27;46834;-19
2021/12/05 06:28:04;;;;;;;0.65;0.50;;;15.00;49.50;;;;;;5108483;27;46811;-16
2021/12/05 06:30:40;;;;;;;0.70;0.47;;;15.10;49.50;;;;;;5108535;27;46857;-18
2021/12/05 06:38:57;;;;;;;0.45;0.40;;;15.10;49.50;;;;;;5105459;27;46838;-16
2021/12/05 06:41:35;;;;;;;0.50;0.50;;;15.10;49.40;;;;;;5108059;27;47097;-20
2021/12/05 06:46:46;;;;;;;0.82;0.70;;;15.10;49.40;;;;;;5107878;27;46810;-20
2021/12/05 06:49:14;;;;;;;1.52;0.57;;;15.00;49.40;;;;;;5107789;27;46888;-16
2021/12/05 06:51:40;;;;;;;0.70;0.52;;;15.00;49.40;;;;;;5108203;27;46912;-19
2021/12/05 06:54:08;;;;;;;0.47;0.47;;;15.00;49.40;;;;;;5107780;27;48814;-15
2021/12/05 06:56:34;;;;;;;0.70;0.43;;;15.00;49.40;;;;;;5107073;27;47038;-18
2021/12/05 06:59:01;;;;;;;0.80;0.70;;;15.00;49.40;;;;;;5107543;27;46983;-16
2021/12/05 07:01:28;;;;;;;0.45;0.45;;;15.00;49.40;;;;;;5107633;27;47283;-16
2021/12/05 07:03:59;;;;;;;0.25;0.25;;;15.00;49.40;;;;;;5107280;27;47752;-16
2021/12/05 07:06:29;;;;;;;0.93;0.47;;;15.00;49.40;;;;;;5107699;27;47456;-19
2021/12/05 07:09:00;;;;;;;0.73;0.70;;;15.00;49.40;;;;;;5107453;27;46896;-16
2021/12/05 07:11:32;;;;;;;0.57;0.50;;;15.00;49.40;;;;;;5107760;27;46867;-16
2021/12/05 07:16:48;;;;;;;0.40;0.40;;;15.00;49.40;;;;;;5106959;27;47095;-17
2021/12/05 07:19:28;;;;;;;0.50;0.50;;;15.00;49.40;;;;;;5107513;27;46872;-16
2021/12/05 07:21:58;;;;;;;0.40;0.40;;;15.00;49.40;;;;;;5107882;27;46989;-19
2021/12/05 07:24:34;;;;;;;0.75;0.55;;;15.00;49.50;;;;;;5107754;27;48869;-19
2021/12/05 07:40:44;;;;;;;0.77;0.60;;;14.90;49.40;;;;;;5105522;27;46911;-20
2021/12/05 07:43:11;;;;;;;0.50;0.40;;;14.90;49.40;;;;;;5107411;27;47083;-20
2021/12/05 07:45:42;;;;;;;0.47;0.40;;;15.00;49.50;;;;;;5106814;27;47806;-19
2021/12/05 07:48:12;;;;;;;0.55;0.55;;;15.00;49.40;;;;;;5107105;27;46925;-20
2021/12/05 07:50:46;;;;;;;0.45;0.45;;;15.00;49.40;;;;;;5106819;27;46813;-20
2021/12/05 07:53:21;;;;;;;0.47;0.30;;;15.00;49.40;;;;;;5107226;27;47133;-15
2021/12/05 07:55:51;;;;;;;0.60;0.40;;;14.90;49.40;;;;;;5105902;27;47016;-15
2021/12/05 07:58:33;;;;;;;0.43;0.40;;;15.00;49.40;;;;;;5106423;27;46858;-16
2021/12/05 08:01:17;;;;;;;0.50;0.50;;;15.00;49.40;;;;;;5106579;27;46810;-16
2021/12/05 08:14:42;;;;;;;0.30;0.30;;;14.90;49.40;;;;;;5103891;27;47015;-19
2021/12/05 08:17:15;;;;;;;0.43;0.38;;;14.90;49.40;;;;;;5106513;27;48144;-15
2021/12/05 08:19:42;;;;;;;0.90;0.43;;;14.90;49.40;;;;;;5106371;27;47090;-20
2021/12/05 08:22:08;;;;;;;0.90;0.50;;;14.90;49.50;;;;;;5106620;27;46814;-16
2021/12/05 08:24:39;;;;;;;0.50;0.50;;;14.90;49.50;;;;;;5106687;27;46835;-15
2021/12/05 08:27:07;;;;;;;0.45;0.40;;;14.90;49.50;;;;;;5106133;27;47087;-15
2021/12/05 08:29:40;;;;;;;0.50;0.40;;;14.90;49.40;;;;;;5106374;27;46890;-19
2021/12/05 08:32:26;;;;;;;0.40;0.40;;;14.90;49.40;;;;;;5106431;27;46894;-16
2021/12/05 08:35:14;;;;;;;0.73;0.50;;;14.90;49.40;;;;;;5106341;27;47092;-20
2021/12/05 08:38:41;;;;;;;0.30;0.30;;;14.90;49.40;;;;;;5105950;27;49064;-17
2021/12/05 08:44:31;;;;;;;0.50;0.50;;;15.00;49.50;;;;;;5079229;27;47006;-15
2021/12/05 09:20:02;;;;;;;2.33;0.70;;;15.80;52.30;;;;;;5091733;27;47095;-20
2021/12/05 09:28:50;;;;;;;2.50;0.68;;;17.00;44.00;;;;;;5063341;28;47136;-21
2021/12/05 09:38:31;;;;;;;0.70;0.63;;;17.20;44.10;;;;;;5106899;27;46914;-21
2021/12/05 10:01:28;;;;;;;2.55;0.88;;;18.00;43.30;;;;;;5103222;27;46934;-21
2021/12/05 10:02:11;;;;;;;4.03;0.90;;;18.60;42.70;;;;;;5103781;27;47261;-21
2021/12/05 10:07:46;;;;;;;2.42;0.70;;;18.60;42.60;;;;;;5066534;27;47132;-21
2021/12/05 10:10:24;;;;;;;1.65;0.57;;;18.70;42.80;;;;;;5109466;27;47200;-21
2021/12/05 10:13:04;;;;;;;2.83;0.70;;;18.80;42.50;;;;;;5108643;27;46823;-20
2021/12/05 10:15:43;;;;;;;1.13;0.70;;;18.90;42.40;;;;;;5108725;27;47074;-20
2021/12/05 10:18:43;;;;;;;4.15;0.77;;;18.90;42.10;;;;;;5108384;27;46767;-20
2021/12/05 10:35:24;;;;;;;1.38;0.50;;;19.10;42.10;;;;;;5083821;27;46925;-20
2021/12/05 10:37:59;;;;;;;4.07;0.80;;;19.20;41.70;;;;;;5093512;27;46913;-20
2021/12/05 10:40:34;;;;;;;2.17;0.65;;;19.20;41.70;;;;;;5105633;27;48141;-20
2021/12/05 10:43:01;;;;;;;0.68;0.50;;;19.30;41.70;;;;;;5103137;27;46930;-20
2021/12/05 10:45:34;;;;;;;2.38;0.70;;;19.30;41.40;;;;;;5087143;27;46886;-20
2021/12/05 10:48:03;;;;;;;2.00;0.60;;;19.40;41.50;;;;;;5087355;27;47094;-20
2021/12/05 10:50:32;;;;;;;1.30;0.60;;;19.40;41.40;;;;;;5087109;27;47934;-20
2021/12/05 10:53:30;;;;;;;1.75;0.50;;;19.50;41.40;;;;;;5086800;27;46956;-20
2021/12/05 10:55:59;;;;;;;1.25;0.50;;;19.50;41.40;;;;;;5086970;27;46985;-20
2021/12/05 10:58:31;;;;;;;0.68;0.55;;;19.50;41.40;;;;;;5087043;27;47284;-24
2021/12/05 11:01:04;;;;;;;1.05;0.63;;;19.50;41.40;;;;;;5087403;27;49074;-20
2021/12/05 11:03:31;;;;;;;2.13;0.75;;;19.50;41.40;;;;;;5086777;27;46379;-20
2021/12/05 11:05:58;;;;;;;0.65;0.60;;;19.50;41.40;;;;;;5087057;27;46915;-20
2021/12/05 11:08:33;;;;;;;0.65;0.50;;;19.50;41.30;;;;;;5086813;27;46986;-20
2021/12/05 11:11:08;;;;;;;1.02;0.73;;;19.50;42.00;;;;;;5086356;28;47894;-21
2021/12/05 11:13:35;;;;;;;1.42;0.65;;;19.50;41.60;;;;;;5086551;27;47102;-21
2021/12/05 11:16:02;;;;;;;0.65;0.57;;;19.50;41.30;;;;;;5086623;27;46845;-21
2021/12/05 11:18:41;;;;;;;0.65;0.50;;;19.60;41.20;;;;;;5086972;27;46984;-21
2021/12/05 11:21:31;;;;;;;2.13;0.60;;;19.50;41.20;;;;;;5086246;27;48882;-21
2021/12/05 11:24:07;;;;;;;1.30;0.70;;;19.50;40.80;;;;;;5102193;27;47056;-20
2021/12/05 11:26:34;;;;;;;2.03;0.60;;;19.60;41.10;;;;;;5102503;27;47010;-19
2021/12/05 11:29:00;;;;;;;0.82;0.60;;;19.60;41.00;;;;;;5085224;28;46956;-19
2021/12/05 11:31:29;;;;;;;2.45;0.52;;;19.60;40.90;;;;;;5083041;28;47381;-16
2021/12/05 11:33:56;;;;;;;2.28;0.60;;;19.60;40.80;;;;;;5083472;27;47468;-18
2021/12/05 11:36:25;;;;;;;4.45;1.15;;;19.70;40.90;;;;;;5083991;27;47277;-17
2021/12/05 11:38:51;;;;;;;1.48;0.82;;;19.80;40.70;;;;;;5087002;27;47301;-18
2021/12/05 11:41:21;;;;;;;0.95;0.50;;;19.70;40.60;;;;;;5083716;27;48854;-17
2021/12/05 11:43:49;;;;;;;1.50;0.73;;;19.70;40.80;;;;;;5084656;27;47072;-17
2021/12/05 11:46:16;;;;;;;0.80;0.70;;;19.60;40.90;;;;;;5085584;27;46945;-16
2021/12/05 11:48:44;;;;;;;0.80;0.80;;;19.60;40.90;;;;;;5086642;27;47269;-17
2021/12/05 11:51:20;;;;;;;1.27;0.70;;;19.60;41.00;;;;;;5086393;27;48888;-19
2021/12/05 11:53:48;;;;;;;0.70;0.70;;;19.60;41.20;;;;;;5086244;27;47021;-17
2021/12/05 11:56:18;;;;;;;3.78;0.90;;;19.60;41.30;;;;;;5085854;27;47067;-17
2021/12/05 11:58:46;;;;;;;3.03;0.80;;;19.50;41.20;;;;;;5085416;28;47148;-17
2021/12/05 12:01:14;;;;;;;5.13;0.90;;;19.50;41.20;;;;;;5084444;28;48113;-18
2021/12/05 12:03:41;;;;;;;3.28;1.15;;;19.50;41.30;;;;;;5084289;28;46911;-19
2021/12/05 12:06:08;;;;;;;2.28;1.20;;;19.50;41.30;;;;;;5084428;28;46936;-17
2021/12/05 12:08:34;;;;;;;1.73;1.00;;;19.40;41.30;;;;;;5084740;28;46953;-17
2021/12/05 12:11:02;;;;;;;1.40;0.98;;;19.40;41.40;;;;;;5084736;28;46977;-17
2021/12/05 12:13:31;;;;;;;2.03;1.00;;;19.40;41.40;;;;;;5085881;28;46881;-18
2021/12/05 12:16:00;;;;;;;1.45;1.20;;;19.40;41.50;;;;;;5085727;28;46803;-17
2021/12/05 12:18:31;;;;;;;3.22;1.08;;;19.30;41.40;;;;;;5086314;28;46869;-17
2021/12/05 12:20:59;;;;;;;1.25;0.90;;;19.30;41.40;;;;;;5085914;28;47814;-17
2021/12/05 12:23:26;;;;;;;1.10;1.00;;;19.30;41.40;;;;;;5085810;28;46908;-17
2021/12/05 12:25:54;;;;;;;2.10;1.35;;;19.30;41.50;;;;;;5085827;28;46874;-18
2021/12/05 12:28:21;;;;;;;2.63;1.08;;;19.30;41.50;;;;;;5086191;28;47135;-17
2021/12/05 12:30:52;;;;;;;2.10;0.93;;;19.30;41.40;;;;;;5085416;28;47965;-17
2021/12/05 12:33:22;;;;;;;2.60;1.17;;;19.30;41.50;;;;;;5085622;28;46922;-17
2021/12/05 12:35:50;;;;;;;1.83;1.25;;;19.20;41.50;;;;;;5085710;28;47049;-17
2021/12/05 12:38:18;;;;;;;0.93;0.93;;;19.20;41.50;;;;;;5085889;28;46984;-17
2021/12/05 12:40:46;;;;;;;3.22;1.15;;;19.20;41.50;;;;;;5085244;28;48815;-17
2021/12/05 12:43:38;;;;;;;1.15;1.05;;;19.20;41.50;;;;;;5085475;28;47234;-17
2021/12/05 12:46:22;;;;;;;2.17;1.38;;;19.20;41.60;;;;;;5085441;27;46819;-17
2021/12/05 12:48:52;;;;;;;2.30;1.30;;;19.20;41.60;;;;;;5085598;28;47163;-17
2021/12/05 12:51:33;;;;;;;2.30;1.30;;;19.10;41.60;;;;;;5085099;28;47977;-17
2021/12/05 12:54:02;;;;;;;1.40;1.20;;;19.20;41.70;;;;;;5085562;27;46890;-17
2021/12/05 12:56:29;;;;;;;1.70;1.27;;;19.10;41.60;;;;;;5084843;28;46849;-17
2021/12/05 12:58:58;;;;;;;3.00;1.52;;;19.10;41.60;;;;;;5085581;28;46991;-18
2021/12/05 13:01:49;;;;;;;2.05;1.40;;;19.10;41.70;;;;;;5085037;28;46807;-17
2021/12/05 13:04:33;;;;;;;4.43;1.50;;;19.10;41.70;;;;;;5085364;28;46826;-17
2021/12/05 13:09:58;;;;;;;2.05;1.42;;;19.10;41.80;;;;;;5085302;28;46877;-17
2021/12/05 13:10:09;;;;;;;2.17;1.67;;;19.10;41.80;;;;;;5084895;28;47138;-17
2021/12/05 13:12:57;;;;;;;2.80;1.70;;;19.10;41.70;;;;;;5085171;28;48832;-18
2021/12/05 13:15:29;;;;;;;3.05;1.48;;;19.10;41.80;;;;;;5085106;28;47138;-17
2021/12/05 13:17:57;;;;;;;2.08;1.75;;;19.10;41.80;;;;;;5085335;28;46894;-17
2021/12/05 13:20:47;;;;;;;1.98;1.48;;;19.10;41.80;;;;;;5085294;28;46854;-17
2021/12/05 13:23:15;;;;;;;3.05;1.40;;;19.10;41.70;;;;;;5084628;27;48199;-17
2021/12/05 13:26:05;;;;;;;2.10;1.65;;;19.10;41.50;;;;;;5084568;28;46904;-17
2021/12/05 13:28:33;;;;;;;2.40;1.70;;;19.10;41.80;;;;;;5084725;27;47027;-17
2021/12/05 13:31:00;;;;;;;3.10;1.70;;;19.10;41.70;;;;;;5084975;28;46844;-17
2021/12/05 13:33:30;;;;;;;5.75;1.98;;;19.10;41.70;;;;;;5085067;28;46916;-17
2021/12/05 13:35:59;;;;;;;2.83;1.88;;;19.10;41.70;;;;;;5084019;28;47455;-18
2021/12/05 13:38:33;;;;;;;3.10;1.60;;;19.10;41.70;;;;;;5084626;28;46847;-17
2021/12/05 13:41:13;;;;;;;2.53;1.60;;;19.10;41.70;;;;;;5084566;28;46948;-17
2021/12/05 13:43:41;;;;;;;3.47;1.60;;;19.10;41.60;;;;;;5084960;28;48273;-18
2021/12/05 13:46:33;;;;;;;3.72;1.88;;;19.10;41.40;;;;;;5084378;28;46943;-18
2021/12/05 13:49:00;;;;;;;2.88;2.00;;;19.10;41.60;;;;;;5084801;28;46830;-18
2021/12/05 13:51:28;;;;;;;5.60;1.83;;;19.10;41.60;;;;;;5084584;28;46739;-18
2021/12/05 13:53:59;;;;;;;2.83;1.90;;;19.10;41.30;;;;;;5084093;28;47948;-17
2021/12/05 13:56:26;;;;;;;5.30;1.92;;;19.10;41.50;;;;;;5084252;28;47142;-17
2021/12/05 13:58:56;;;;;;;4.45;2.00;;;19.10;41.80;;;;;;5084782;28;46886;-18
2021/12/05 14:01:29;;;;;;;6.18;2.13;;;19.10;41.90;;;;;;5084475;28;46908;-17
2021/12/05 14:04:27;;;;;;;4.93;2.10;;;19.10;42.00;;;;;;5086422;28;48839;-18
2021/12/05 14:06:58;;;;;;;3.58;2.28;;;19.10;42.10;;;;;;5087599;27;46806;-19
2021/12/05 14:09:36;;;;;;;4.93;2.10;;;19.10;42.20;;;;;;5088425;28;46896;-17
2021/12/05 14:12:07;;;;;;;3.30;2.05;;;19.10;42.20;;;;;;5088136;27;46931;-17
2021/12/05 14:14:37;;;;;;;6.47;2.50;;;19.10;42.40;;;;;;5087747;27;47978;-18
2021/12/05 14:17:05;;;;;;;4.43;2.20;;;19.10;42.40;;;;;;5088114;28;46892;-18
2021/12/05 14:19:34;;;;;;;9.43;2.40;;;19.10;42.40;;;;;;5087623;28;46896;-18
2021/12/05 14:22:04;;;;;;;4.90;2.50;;;19.10;42.30;;;;;;5088075;28;46950;-17
2021/12/05 14:24:33;;;;;;;9.95;2.67;;;19.10;42.30;;;;;;5087621;28;47256;-17
2021/12/05 14:27:02;;;;;;;4.20;2.20;;;19.10;42.30;;;;;;5087865;28;47161;-17
2021/12/05 14:29:29;;;;;;;3.40;2.40;;;19.10;42.30;;;;;;5087878;28;46896;-17
2021/12/05 14:31:58;;;;;;;2.85;2.40;;;19.10;42.30;;;;;;5087872;28;47131;-17
2021/12/05 14:34:26;;;;;;;6.82;2.65;;;19.10;42.30;;;;;;5087281;28;47111;-17
2021/12/05 14:36:54;;;;;;;6.40;2.42;;;19.10;42.30;;;;;;5087519;28;46845;-18
2021/12/05 14:39:25;;;;;;;6.57;2.70;;;19.10;42.30;;;;;;5086345;28;47005;-18
2021/12/05 14:41:55;;;;;;;7.35;2.60;;;19.00;42.20;;;;;;5087370;28;46865;-18
2021/12/05 14:44:22;;;;;;;5.60;2.40;;;19.10;42.20;;;;;;5087493;28;47853;-17
2021/12/05 14:46:57;;;;;;;6.68;2.97;;;19.10;42.20;;;;;;5087000;28;46890;-17
2021/12/05 14:49:25;;;;;;;4.20;2.55;;;19.10;42.10;;;;;;5086904;28;46898;-17
2021/12/05 14:51:52;;;;;;;8.55;2.65;;;19.10;42.80;;;;;;5087547;28;46987;-18
2021/12/05 14:54:21;;;;;;;4.47;2.75;;;19.10;42.20;;;;;;5087163;28;49234;-17
2021/12/05 14:56:49;;;;;;;5.18;3.45;;;19.10;42.10;;;;;;5086568;28;46881;-18
2021/12/05 14:59:17;;;;;;;8.35;2.55;;;19.10;42.10;;;;;;5087062;28;46916;-17
2021/12/05 15:01:47;;;;;;;7.65;2.80;;;19.00;42.00;;;;;;5086982;28;47270;-17
2021/12/05 15:04:14;;;;;;;7.07;2.60;;;19.00;42.00;;;;;;5086994;28;48036;-17
2021/12/05 15:06:45;;;;;;;10.00;2.90;;;19.00;42.00;;;;;;5086602;28;47046;-17
2021/12/05 15:09:18;;;;;;;5.78;3.00;;;19.00;42.00;;;;;;5087017;28;46990;-17
2021/12/05 15:11:51;;;;;;;4.97;1.80;;;19.00;42.00;;;;;;5086835;28;46831;-17
2021/12/05 15:14:18;;;;;;;3.25;1.67;;;19.00;39.60;;;;;;5087101;27;46929;-17
2021/12/05 15:16:54;;;;;;;3.55;1.30;;;18.90;38.30;;;;;;5086710;28;46835;-17
2021/12/05 15:19:21;;;;;;;2.00;1.30;;;18.80;37.80;;;;;;5088542;27;47142;-17
2021/12/05 15:21:48;;;;;;;3.40;1.58;;;18.70;37.70;;;;;;5086553;28;47123;-17
2021/12/05 15:24:15;;;;;;;2.70;1.10;;;18.70;37.30;;;;;;5085870;28;48245;-17
2021/12/05 15:26:41;;;;;;;1.90;1.00;;;18.60;37.30;;;;;;5086028;28;47096;-17
2021/12/05 15:29:09;;;;;;;3.53;1.08;;;18.60;37.00;;;;;;5085993;28;46901;-17
2021/12/05 15:31:36;;;;;;;1.65;1.08;;;18.50;37.10;;;;;;5085957;28;46873;-17
2021/12/05 15:34:16;;;;;;;2.45;1.30;;;18.50;37.10;;;;;;5086684;27;47962;-16
2021/12/05 15:36:43;;;;;;;2.70;1.13;;;18.50;37.20;;;;;;5086633;27;47186;-17
2021/12/05 15:39:19;;;;;;;1.20;1.10;;;18.40;37.00;;;;;;5086679;28;46937;-17
2021/12/05 15:41:46;;;;;;;1.45;1.10;;;18.40;37.10;;;;;;5086402;28;46856;-17
2021/12/05 15:44:28;;;;;;;2.03;1.45;;;18.30;37.50;;;;;;5086312;28;47938;-17
2021/12/05 15:47:01;;;;;;;2.58;1.50;;;18.40;38.10;;;;;;5086470;28;46838;-17
2021/12/05 15:49:40;;;;;;;1.25;1.15;;;18.50;38.30;;;;;;5086900;28;46966;-17
2021/12/05 15:52:07;;;;;;;2.13;1.17;;;18.50;38.50;;;;;;5086814;27;46893;-17
2021/12/05 15:54:34;;;;;;;2.08;1.33;;;18.60;39.30;;;;;;5086405;28;47848;-17
2021/12/05 15:57:08;;;;;;;1.40;1.30;;;18.60;38.80;;;;;;5086155;28;46995;-18
2021/12/05 15:59:39;;;;;;;5.65;1.25;;;18.70;39.00;;;;;;5086402;28;46885;-18
2021/12/05 16:02:10;;;;;;;1.42;1.33;;;18.70;39.00;;;;;;5086714;28;47019;-17
2021/12/05 16:04:36;;;;;;;1.60;1.33;;;18.70;39.00;;;;;;5086359;27;48037;-17
2021/12/05 16:07:08;;;;;;;2.38;1.35;;;18.70;39.10;;;;;;5086245;28;47004;-17
2021/12/05 16:09:35;;;;;;;2.17;1.33;;;18.70;39.10;;;;;;5086094;28;47000;-17
2021/12/05 16:12:07;;;;;;;2.58;1.20;;;18.80;39.30;;;;;;5086485;28;46897;-17
2021/12/05 16:14:36;;;;;;;1.75;1.50;;;18.80;39.30;;;;;;5089621;27;46791;-17
2021/12/05 16:17:13;;;;;;;1.90;1.40;;;18.80;39.40;;;;;;5106165;27;46889;-17
2021/12/05 16:19:40;;;;;;;1.60;1.50;;;18.80;39.40;;;;;;5106248;27;46794;-17
2021/12/05 16:22:09;;;;;;;3.00;1.30;;;18.80;39.40;;;;;;5106499;27;46895;-17
2021/12/05 16:24:40;;;;;;;3.22;1.35;;;18.80;39.40;;;;;;5105974;27;47323;-17
2021/12/05 16:27:06;;;;;;;1.77;1.42;;;18.80;39.40;;;;;;5106148;27;47014;-17
2021/12/05 16:29:33;;;;;;;2.72;1.45;;;18.80;39.50;;;;;;5106139;27;46904;-17
2021/12/05 16:32:01;;;;;;;3.63;1.98;;;18.80;39.50;;;;;;5106250;27;47308;-18
2021/12/05 16:34:29;;;;;;;2.13;1.30;;;18.80;39.50;;;;;;5106217;27;47850;-17
2021/12/05 16:36:57;;;;;;;2.08;1.70;;;18.80;39.50;;;;;;5106110;27;47051;-17
2021/12/05 16:39:28;;;;;;;1.77;1.67;;;18.80;39.50;;;;;;5106309;27;46816;-17
2021/12/05 16:41:56;;;;;;;1.45;1.27;;;18.80;39.50;;;;;;5104702;27;47208;-18
2021/12/05 16:44:24;;;;;;;1.52;1.30;;;18.80;39.60;;;;;;5085088;28;47860;-17
2021/12/05 16:46:52;;;;;;;2.45;1.60;;;18.80;39.60;;;;;;5084853;28;46896;-17
2021/12/05 16:49:22;;;;;;;1.35;1.25;;;18.90;39.50;;;;;;5085797;28;46911;-17
2021/12/05 16:51:50;;;;;;;2.28;1.60;;;18.90;39.60;;;;;;5085634;28;46833;-17
2021/12/05 16:54:18;;;;;;;2.38;1.20;;;18.80;39.60;;;;;;5085548;28;47971;-18
2021/12/05 16:56:49;;;;;;;1.30;1.20;;;18.80;39.60;;;;;;5084810;28;47192;-16
2021/12/05 16:59:18;;;;;;;1.55;1.20;;;18.80;39.60;;;;;;5085677;27;46867;-17
2021/12/05 17:01:45;;;;;;;1.90;1.48;;;18.80;39.60;;;;;;5085206;28;47145;-16
2021/12/05 17:04:12;;;;;;;4.13;1.55;;;18.80;39.60;;;;;;5085330;28;48213;-17